createdAt,value
2018-07-08T00:01:32.004Z,95.70
2018-07-08T00:04:01.026Z,95.90
2018-07-08T00:06:29.984Z,95.90
2018-07-08T00:08:59.967Z,96.00
2018-07-08T00:11:29.145Z,96.00
2018-07-08T00:13:58.084Z,96.00
2018-07-08T00:16:27.069Z,95.70
2018-07-08T00:18:57.152Z,96.50
2018-07-08T00:21:26.173Z,96.60
2018-07-08T00:23:55.123Z,97.00
2018-07-08T00:28:52.776Z,96.40
2018-07-08T00:31:22.071Z,96.60
2018-07-08T00:33:51.054Z,97.00
2018-07-08T00:36:20.027Z,96.80
2018-07-08T00:38:49.188Z,97.30
2018-07-08T00:41:18.237Z,97.10
2018-07-08T00:43:47.186Z,97.70
2018-07-08T00:46:16.134Z,97.60
2018-07-08T00:48:45.120Z,97.60
2018-07-08T00:51:14.096Z,97.50
2018-07-08T00:53:43.058Z,98.00
2018-07-08T00:56:12.085Z,97.90
2018-07-08T00:58:41.130Z,97.70
2018-07-08T01:01:10.199Z,97.90
2018-07-08T01:03:39.144Z,97.50
2018-07-08T01:06:09.121Z,98.70
2018-07-08T01:08:38.082Z,98.70
2018-07-08T01:11:07.080Z,98.60
2018-07-08T01:13:36.068Z,98.80
2018-07-08T01:16:05.065Z,98.80
2018-07-08T01:18:34.040Z,98.40
2018-07-08T01:21:03.060Z,98.60
2018-07-08T01:26:11.853Z,99.50
2018-07-08T01:28:41.756Z,99.70
2018-07-08T01:31:12.076Z,98.90
2018-07-08T01:33:41.281Z,99.00
2018-07-08T01:36:10.779Z,99.20
2018-07-08T01:38:39.720Z,99.10
2018-07-08T01:41:08.673Z,99.50
2018-07-08T01:43:37.910Z,99.80
2018-07-08T01:46:06.891Z,99.40
2018-07-08T01:51:04.713Z,99.90
2018-07-08T01:53:33.653Z,99.80
2018-07-08T01:56:02.643Z,99.90
2018-07-08T01:58:31.619Z,99.90
2018-07-08T02:01:00.955Z,99.90
2018-07-08T02:03:29.934Z,99.90
2018-07-08T02:05:59.152Z,99.90
2018-07-08T02:08:28.081Z,99.90
2018-07-08T02:10:57.102Z,99.90
2018-07-08T02:13:26.241Z,99.90
2018-07-08T02:15:55.250Z,99.90
2018-07-08T02:18:24.195Z,99.90
2018-07-08T02:20:53.160Z,99.90
2018-07-08T02:23:22.505Z,99.90
2018-07-08T02:25:51.567Z,99.90
2018-07-08T02:28:20.536Z,99.90
2018-07-08T02:30:49.759Z,99.90
2018-07-08T02:33:18.781Z,99.90
2018-07-08T02:35:48.599Z,99.90
2018-07-08T02:38:17.654Z,99.90
2018-07-08T02:40:46.708Z,99.90
2018-07-08T02:43:15.718Z,99.90
2018-07-08T02:45:44.755Z,99.90
2018-07-08T02:48:13.732Z,99.90
2018-07-08T02:50:42.794Z,99.90
2018-07-08T02:53:11.802Z,99.90
2018-07-08T02:55:40.757Z,99.90
2018-07-08T02:58:09.719Z,99.90
2018-07-08T03:00:38.672Z,99.90
2018-07-08T03:03:07.663Z,99.90
2018-07-08T03:05:36.587Z,99.90
2018-07-08T03:08:05.676Z,99.90
2018-07-08T03:10:35.266Z,99.90
2018-07-08T03:13:04.261Z,99.90
2018-07-08T03:15:33.393Z,99.90
2018-07-08T03:18:02.431Z,99.90
2018-07-08T03:20:31.411Z,99.90
2018-07-08T03:23:00.384Z,99.90
2018-07-08T03:25:29.417Z,99.90
2018-07-08T03:30:27.053Z,99.90
2018-07-08T03:32:56.047Z,99.90
2018-07-08T03:35:25.259Z,99.90
2018-07-08T03:37:54.174Z,99.90
2018-07-08T03:40:23.206Z,99.90
2018-07-08T03:42:52.327Z,99.90
2018-07-08T03:45:21.283Z,99.90
2018-07-08T03:47:50.227Z,99.90
2018-07-08T03:52:48.091Z,99.90
2018-07-08T03:55:17.102Z,99.90
2018-07-08T03:57:46.213Z,99.90
2018-07-08T04:00:15.269Z,99.90
2018-07-08T04:02:44.271Z,99.90
2018-07-08T04:05:13.259Z,99.90
2018-07-08T04:07:42.200Z,99.90
2018-07-08T04:10:11.188Z,99.90
2018-07-08T04:12:40.213Z,99.90
2018-07-08T04:15:09.228Z,99.90
2018-07-08T04:17:38.289Z,99.90
2018-07-08T04:20:07.285Z,99.90
2018-07-08T04:22:36.637Z,99.90
2018-07-08T04:25:05.734Z,99.90
2018-07-08T04:27:34.727Z,99.90
2018-07-08T04:30:03.729Z,99.90
2018-07-08T04:32:32.903Z,99.90
2018-07-08T04:35:01.946Z,99.90
2018-07-08T04:37:30.952Z,99.90
2018-07-08T04:39:59.914Z,99.90
2018-07-08T04:42:28.917Z,99.90
2018-07-08T04:44:57.992Z,99.90
2018-07-08T04:47:27.093Z,99.90
2018-07-08T04:49:56.353Z,99.90
2018-07-08T04:52:25.471Z,99.90
2018-07-08T04:54:54.690Z,99.90
2018-07-08T04:57:23.832Z,99.90
2018-07-08T04:59:52.866Z,99.90
2018-07-08T05:02:22.684Z,99.90
2018-07-08T05:04:51.712Z,99.10
2018-07-08T05:07:20.709Z,98.40
2018-07-08T05:09:50.382Z,97.80
2018-07-08T05:12:19.503Z,97.30
2018-07-08T05:14:48.591Z,96.80
2018-07-08T05:17:17.873Z,96.20
2018-07-08T05:19:46.945Z,95.90
2018-07-08T05:22:16.164Z,95.40
2018-07-08T05:24:45.165Z,95.50
2018-07-08T05:27:14.145Z,95.30
2018-07-08T05:29:43.209Z,95.10
2018-07-08T05:32:12.238Z,94.30
2018-07-08T05:34:41.223Z,94.60
2018-07-08T05:37:10.742Z,93.30
2018-07-08T05:39:39.866Z,93.20
2018-07-08T05:42:08.853Z,92.70
2018-07-08T05:44:37.837Z,93.40
2018-07-08T05:47:06.956Z,92.40
2018-07-08T05:49:36.006Z,92.00
2018-07-08T05:52:05.050Z,92.30
2018-07-08T05:54:34.136Z,91.90
2018-07-08T05:57:03.133Z,90.70
2018-07-08T05:59:32.428Z,90.80
2018-07-08T06:02:01.382Z,90.90
2018-07-08T06:04:30.380Z,90.10
2018-07-08T06:06:59.532Z,89.70
2018-07-08T06:09:28.537Z,89.40
2018-07-08T06:11:57.533Z,90.50
2018-07-08T06:14:26.526Z,89.40
2018-07-08T06:16:55.533Z,89.50
2018-07-08T06:19:24.533Z,89.60
2018-07-08T06:21:53.650Z,90.00
2018-07-08T06:24:22.704Z,88.90
2018-07-08T06:26:51.964Z,88.60
2018-07-08T06:29:20.997Z,88.10
2018-07-08T06:31:50.069Z,87.40
2018-07-08T06:34:18.995Z,87.20
2018-07-08T06:36:47.958Z,86.70
2018-07-08T06:39:17.131Z,85.80
2018-07-08T06:41:46.085Z,87.60
2018-07-08T06:44:15.140Z,88.50
2018-07-08T06:46:44.109Z,87.30
2018-07-08T06:49:13.090Z,87.70
2018-07-08T06:51:42.136Z,86.30
2018-07-08T06:54:11.105Z,86.00
2018-07-08T06:56:40.143Z,85.20
2018-07-08T06:59:09.105Z,82.40
2018-07-08T07:01:38.118Z,83.10
2018-07-08T07:04:07.079Z,82.20
2018-07-08T07:06:36.122Z,81.40
2018-07-08T07:09:07.714Z,79.80
2018-07-08T07:11:36.894Z,79.10
2018-07-08T07:14:06.232Z,79.00
2018-07-08T07:16:35.918Z,77.30
2018-07-08T07:19:05.602Z,76.70
2018-07-08T07:21:34.702Z,77.70
2018-07-08T07:24:03.697Z,79.40
2018-07-08T07:26:32.886Z,75.00
2018-07-08T07:29:01.820Z,74.60
2018-07-08T07:31:30.782Z,71.70
2018-07-08T07:33:59.853Z,71.00
2018-07-08T07:36:28.902Z,70.20
2018-07-08T07:38:57.853Z,70.10
2018-07-08T07:41:26.906Z,67.70
2018-07-08T07:46:24.561Z,68.20
2018-07-08T07:48:53.588Z,67.30
2018-07-08T07:51:22.697Z,64.00
2018-07-08T07:53:51.622Z,65.50
2018-07-08T07:56:20.856Z,67.30
2018-07-08T07:58:49.883Z,65.80
2018-07-08T08:01:18.894Z,66.30
2018-07-08T08:03:48.955Z,65.60
2018-07-08T08:06:18.012Z,65.90
2018-07-08T08:08:47.162Z,66.60
2018-07-08T08:11:16.111Z,66.50
2018-07-08T08:13:57.348Z,65.60
2018-07-08T08:16:26.545Z,64.50
2018-07-08T08:18:55.723Z,60.90
2018-07-08T08:21:25.371Z,61.00
2018-07-08T08:23:55.699Z,61.00
2018-07-08T08:26:25.015Z,61.60
2018-07-08T08:28:54.091Z,61.90
2018-07-08T08:31:23.213Z,62.20
2018-07-08T08:35:06.826Z,60.50
2018-07-08T08:37:37.842Z,59.50
2018-07-08T08:40:07.567Z,58.60
2018-07-08T08:42:36.590Z,57.90
2018-07-08T08:45:06.765Z,57.30
2018-07-08T08:47:36.203Z,56.60
2018-07-08T08:50:05.562Z,56.90
2018-07-08T08:52:34.592Z,56.20
2018-07-08T08:55:03.745Z,56.50
2018-07-08T08:57:32.848Z,56.10
2018-07-08T09:00:01.874Z,55.70
2018-07-08T09:02:30.793Z,53.90
2018-07-08T09:05:00.527Z,53.80
2018-07-08T09:07:29.545Z,53.10
2018-07-08T09:09:58.553Z,53.40
2018-07-08T09:12:27.539Z,53.00
2018-07-08T09:14:56.466Z,52.60
2018-07-08T09:19:53.142Z,53.30
2018-07-08T09:22:20.466Z,53.10
2018-07-08T09:24:47.739Z,52.00
2018-07-08T09:27:15.007Z,51.40
2018-07-08T09:29:42.335Z,51.60
2018-07-08T09:32:09.765Z,52.10
2018-07-08T09:34:37.060Z,52.20
2018-07-08T09:37:04.425Z,51.00
2018-07-08T09:39:31.706Z,51.90
2018-07-08T09:41:59.382Z,52.20
2018-07-08T09:44:26.749Z,50.90
2018-07-08T09:46:54.021Z,51.70
2018-07-08T09:49:21.614Z,50.30
2018-07-08T09:51:49.364Z,50.60
2018-07-08T09:54:17.133Z,50.40
2018-07-08T09:56:44.764Z,50.40
2018-07-08T09:59:12.333Z,50.30
2018-07-08T10:01:45.248Z,49.50
2018-07-08T10:04:13.923Z,50.20
2018-07-08T10:06:42.111Z,48.50
2018-07-08T10:09:11.082Z,49.10
2018-07-08T10:11:38.636Z,48.90
2018-07-08T10:14:06.229Z,49.00
2018-07-08T10:16:33.489Z,48.20
2018-07-08T10:19:00.878Z,47.90
2018-07-08T10:21:28.193Z,47.40
2018-07-08T10:23:55.547Z,47.20
2018-07-08T10:26:22.819Z,47.40
2018-07-08T10:28:50.190Z,47.30
2018-07-08T10:31:22.256Z,46.00
2018-07-08T10:33:54.250Z,46.70
2018-07-08T10:36:21.501Z,48.70
2018-07-08T10:38:49.486Z,48.80
2018-07-08T10:41:16.887Z,49.30
2018-07-08T10:43:44.194Z,48.70
2018-07-08T10:46:11.515Z,48.90
2018-07-08T10:48:38.861Z,47.50
2018-07-08T10:51:06.157Z,46.30
2018-07-08T10:53:33.572Z,46.30
2018-07-08T10:56:00.858Z,44.50
2018-07-08T10:58:28.157Z,45.00
2018-07-08T11:00:55.472Z,44.00
2018-07-08T11:03:22.865Z,43.40
2018-07-08T11:05:50.158Z,43.20
2018-07-08T11:08:17.482Z,43.20
2018-07-08T11:10:44.977Z,43.10
2018-07-08T11:13:12.277Z,43.00
2018-07-08T11:15:39.757Z,42.50
2018-07-08T11:18:07.221Z,43.70
2018-07-08T11:20:34.775Z,43.90
2018-07-08T11:23:02.260Z,44.10
2018-07-08T11:27:57.685Z,42.70
2018-07-08T11:30:25.154Z,42.40
2018-07-08T11:32:52.734Z,41.80
2018-07-08T11:35:20.283Z,42.60
2018-07-08T11:37:47.825Z,43.60
2018-07-08T11:40:15.118Z,42.80
2018-07-08T11:42:42.443Z,43.40
2018-07-08T11:45:09.720Z,43.40
2018-07-08T11:47:36.979Z,43.40
2018-07-08T11:50:04.288Z,42.60
2018-07-08T11:52:31.661Z,42.70
2018-07-08T11:54:58.979Z,42.00
2018-07-08T11:57:26.339Z,40.50
2018-07-08T11:59:53.719Z,40.80
2018-07-08T12:02:21.081Z,41.20
2018-07-08T12:04:48.414Z,41.80
2018-07-08T12:07:15.687Z,42.90
2018-07-08T12:09:43.149Z,41.30
2018-07-08T12:12:10.499Z,42.20
2018-07-08T12:14:38.431Z,41.20
2018-07-08T12:19:33.181Z,40.40
2018-07-08T12:22:00.533Z,40.90
2018-07-08T12:24:27.885Z,41.80
2018-07-08T12:26:55.186Z,40.30
2018-07-08T12:29:22.544Z,39.90
2018-07-08T12:31:50.099Z,40.60
2018-07-08T12:34:17.613Z,41.00
2018-07-08T12:36:44.975Z,41.90
2018-07-08T12:39:13.138Z,40.90
2018-07-08T12:41:41.089Z,40.50
2018-07-08T12:44:08.383Z,41.80
2018-07-08T12:46:35.957Z,41.40
2018-07-08T12:56:25.603Z,39.40
2018-07-08T12:58:53.178Z,40.40
2018-07-08T13:01:20.726Z,39.00
2018-07-08T13:03:48.115Z,39.30
2018-07-08T13:06:15.664Z,40.30
2018-07-08T13:08:42.917Z,39.90
2018-07-08T13:11:10.342Z,39.10
2018-07-08T13:13:37.741Z,38.60
2018-07-08T13:16:05.144Z,39.50
2018-07-08T13:18:32.393Z,39.20
2018-07-08T13:21:00.073Z,40.80
2018-07-08T13:23:27.502Z,39.50
2018-07-08T13:28:22.565Z,39.30
2018-07-08T13:30:50.195Z,39.10
2018-07-08T13:33:17.518Z,37.50
2018-07-08T13:35:44.833Z,39.10
2018-07-08T13:38:12.171Z,38.30
2018-07-08T13:40:39.490Z,38.00
2018-07-08T13:43:06.894Z,39.00
2018-07-08T13:45:34.374Z,39.20
2018-07-08T13:48:01.688Z,39.50
2018-07-08T13:50:29.019Z,38.50
2018-07-08T13:52:56.521Z,37.80
2018-07-08T13:55:23.909Z,38.20
2018-07-08T13:57:51.249Z,37.60
2018-07-08T14:00:18.618Z,38.50
2018-07-08T14:02:45.890Z,38.90
2018-07-08T14:05:13.296Z,39.00
2018-07-08T14:07:40.615Z,38.60
2018-07-08T14:10:07.947Z,36.70
2018-07-08T14:12:35.370Z,37.40
2018-07-08T14:15:02.863Z,37.10
2018-07-08T14:17:30.394Z,37.50
2018-07-08T14:19:57.915Z,38.40
2018-07-08T14:22:25.647Z,38.70
2018-07-08T14:24:53.140Z,37.60
2018-07-08T14:27:20.685Z,38.40
2018-07-08T14:29:48.111Z,38.70
2018-07-08T14:32:15.533Z,38.50
2018-07-08T14:34:42.967Z,37.20
2018-07-08T14:37:10.209Z,36.60
2018-07-08T14:39:37.793Z,38.00
2018-07-08T14:42:05.425Z,38.70
2018-07-08T14:44:32.937Z,37.90
2018-07-08T14:47:00.406Z,38.60
2018-07-08T14:49:27.791Z,38.60
2018-07-08T14:51:55.207Z,38.70
2018-07-08T14:54:22.643Z,39.40
2018-07-08T14:56:50.041Z,37.90
2018-07-08T14:59:17.475Z,39.70
2018-07-08T15:01:44.912Z,39.60
2018-07-08T15:04:12.481Z,39.70
2018-07-08T15:06:39.802Z,40.10
2018-07-08T15:09:08.875Z,41.40
2018-07-08T15:11:36.391Z,40.20
2018-07-08T15:14:04.137Z,40.20
2018-07-08T15:16:31.630Z,39.10
2018-07-08T15:18:58.918Z,38.90
2018-07-08T15:21:26.609Z,39.10
2018-07-08T15:23:54.780Z,39.70
2018-07-08T15:26:22.455Z,39.40
2018-07-08T15:28:50.775Z,39.10
2018-07-08T15:36:14.446Z,38.70
2018-07-08T15:38:42.458Z,39.80
2018-07-08T15:41:09.772Z,40.70
2018-07-08T15:43:37.359Z,40.10
2018-07-08T15:46:04.887Z,41.00
2018-07-08T15:48:32.513Z,42.00
2018-07-08T15:50:59.805Z,40.50
2018-07-08T15:53:27.372Z,40.80
2018-07-08T15:55:54.708Z,40.00
2018-07-08T15:58:22.067Z,40.10
2018-07-08T16:00:49.570Z,41.30
2018-07-08T16:03:16.998Z,39.30
2018-07-08T16:05:45.459Z,39.00
2018-07-08T16:08:12.947Z,39.60
2018-07-08T16:10:40.423Z,39.40
2018-07-08T16:13:07.883Z,39.70
2018-07-08T16:15:35.266Z,40.20
2018-07-08T16:18:03.230Z,39.90
2018-07-08T16:20:30.535Z,40.30
2018-07-08T16:22:57.889Z,40.40
2018-07-08T16:25:25.253Z,40.90
2018-07-08T16:27:52.530Z,40.00
2018-07-08T16:30:19.906Z,41.20
2018-07-08T16:32:47.237Z,41.50
2018-07-08T16:35:14.557Z,40.10
2018-07-08T16:37:41.830Z,40.40
2018-07-08T16:40:12.258Z,40.80
2018-07-08T16:42:39.667Z,40.40
2018-07-08T16:45:06.944Z,40.90
2018-07-08T16:47:34.285Z,40.60
2018-07-08T16:50:01.640Z,41.40
2018-07-08T16:52:28.944Z,41.20
2018-07-08T16:54:56.210Z,41.50
2018-07-08T16:57:23.561Z,42.10
2018-07-08T16:59:51.123Z,42.10
2018-07-08T17:02:18.674Z,42.20
2018-07-08T17:07:13.382Z,42.70
2018-07-08T17:09:40.803Z,42.50
2018-07-08T17:12:08.202Z,42.40
2018-07-08T17:14:35.540Z,42.80
2018-07-08T17:17:02.933Z,43.10
2018-07-08T17:19:30.519Z,42.90
2018-07-08T17:21:57.818Z,43.00
2018-07-08T17:24:25.153Z,43.30
2018-07-08T17:26:53.377Z,43.80
2018-07-08T17:29:21.032Z,44.40
2018-07-08T17:31:49.440Z,44.30
2018-07-08T17:34:16.788Z,44.60
2018-07-08T17:36:44.229Z,45.10
2018-07-08T17:39:11.497Z,45.00
2018-07-08T17:41:39.835Z,45.30
2018-07-08T17:44:07.524Z,45.20
2018-07-08T17:46:35.352Z,45.40
2018-07-08T17:49:02.832Z,45.40
2018-07-08T17:51:30.102Z,45.40
2018-07-08T17:53:57.562Z,45.40
2018-07-08T17:56:24.938Z,45.90
2018-07-08T17:58:52.244Z,46.50
2018-07-08T18:01:19.533Z,47.10
2018-07-08T18:03:47.355Z,47.90
2018-07-08T18:06:14.685Z,47.70
2018-07-08T18:08:41.975Z,47.50
2018-07-08T18:11:09.305Z,47.80
2018-07-08T18:13:36.635Z,48.00
2018-07-08T18:16:03.994Z,48.50
2018-07-08T18:18:31.390Z,48.50
2018-07-08T18:20:58.701Z,48.40
2018-07-08T18:23:25.952Z,48.90
2018-07-08T18:25:54.098Z,49.10
2018-07-08T18:28:21.461Z,49.70
2018-07-08T18:30:48.865Z,49.70
2018-07-08T18:33:16.188Z,50.00
2018-07-08T18:35:43.422Z,49.90
2018-07-08T18:38:10.705Z,50.10
2018-07-08T18:40:37.979Z,50.40
2018-07-08T18:43:05.427Z,50.80
2018-07-08T18:45:32.734Z,51.10
2018-07-08T18:48:00.063Z,51.60
2018-07-08T18:50:27.442Z,52.10
2018-07-08T18:52:54.813Z,53.20
2018-07-08T18:55:22.083Z,53.40
2018-07-08T18:57:49.350Z,54.10
2018-07-08T19:00:16.752Z,54.70
2018-07-08T19:02:44.104Z,54.70
2018-07-08T19:05:11.454Z,55.20
2018-07-08T19:07:38.818Z,55.90
2018-07-08T19:12:33.591Z,57.60
2018-07-08T19:15:00.899Z,58.00
2018-07-08T19:17:28.155Z,58.20
2018-07-08T19:19:55.493Z,58.40
2018-07-08T19:22:22.821Z,59.00
2018-07-08T19:24:50.210Z,59.20
2018-07-08T19:27:17.515Z,60.00
2018-07-08T19:29:45.025Z,61.00
2018-07-08T19:32:12.337Z,61.70
2018-07-08T19:37:06.905Z,62.70
2018-07-08T19:39:34.345Z,63.40
2018-07-08T19:42:01.823Z,64.10
2018-07-08T19:44:29.133Z,65.00
2018-07-08T19:46:56.648Z,65.50
2018-07-08T19:49:24.115Z,66.20
2018-07-08T19:51:51.789Z,66.10
2018-07-08T19:54:19.149Z,66.60
2018-07-08T19:56:46.593Z,67.90
2018-07-08T19:59:13.973Z,68.50
2018-07-08T20:01:41.247Z,69.40
2018-07-08T20:04:08.786Z,69.00
2018-07-08T20:06:36.077Z,69.60
2018-07-08T20:11:31.564Z,70.80
2018-07-08T20:13:58.865Z,71.60
2018-07-08T20:18:53.569Z,72.60
2018-07-08T20:21:21.080Z,73.90
2018-07-08T20:23:48.181Z,73.80
2018-07-08T20:26:15.564Z,75.40
2018-07-08T20:28:43.410Z,75.60
2018-07-08T20:36:05.493Z,76.80
2018-07-08T20:38:32.774Z,77.20
2018-07-08T20:41:00.180Z,78.00
2018-07-08T20:43:27.486Z,78.60
2018-07-08T20:45:54.778Z,78.90
2018-07-08T20:50:49.958Z,80.20
2018-07-08T20:53:17.352Z,80.70
2018-07-08T20:58:12.013Z,81.20
2018-07-08T21:00:39.270Z,81.80
2018-07-08T21:03:06.680Z,82.20
2018-07-08T21:05:33.969Z,82.70
2018-07-08T21:08:01.218Z,83.30
2018-07-08T21:10:29.134Z,83.50
2018-07-08T21:12:56.458Z,85.20
2018-07-08T21:15:23.799Z,85.00
2018-07-08T21:17:51.161Z,84.90
2018-07-08T21:20:18.538Z,85.20
2018-07-08T21:22:45.868Z,85.70
2018-07-08T21:25:13.241Z,85.70
2018-07-08T21:30:07.811Z,86.80
2018-07-08T21:32:35.485Z,87.00
2018-07-08T21:37:31.037Z,88.00
2018-07-08T21:42:25.646Z,88.50
2018-07-08T21:44:53.705Z,89.20
2018-07-08T21:47:21.072Z,89.00
2018-07-08T21:49:48.338Z,89.90
2018-07-08T21:52:15.625Z,90.00
2018-07-08T21:54:43.007Z,90.10
2018-07-08T21:57:10.350Z,90.40
2018-07-08T21:59:37.828Z,90.50
2018-07-08T22:04:36.945Z,90.70
2018-07-08T22:07:10.022Z,90.90
2018-07-08T22:09:37.361Z,91.10
2018-07-08T22:12:04.974Z,91.40
2018-07-08T22:14:32.634Z,91.40
2018-07-08T22:16:59.958Z,91.60
2018-07-08T22:19:27.433Z,91.70
2018-07-08T22:21:55.809Z,91.80
2018-07-08T22:24:23.264Z,92.00
2018-07-08T22:26:50.554Z,92.00
2018-07-08T22:29:18.003Z,92.50
2018-07-08T22:31:45.291Z,92.60
2018-07-08T22:36:40.007Z,92.70
2018-07-08T22:39:08.367Z,93.00
2018-07-08T22:41:36.074Z,93.20
2018-07-08T22:44:03.378Z,93.30
2018-07-08T22:46:30.961Z,93.40
2018-07-08T22:48:58.454Z,93.60
2018-07-08T22:51:25.782Z,93.90
2018-07-08T22:53:53.781Z,94.10
2018-07-08T22:56:21.114Z,93.90
2018-07-08T22:58:48.414Z,93.90
2018-07-08T23:01:27.457Z,94.00
2018-07-08T23:03:56.498Z,94.40
2018-07-08T23:06:23.797Z,94.40
2018-07-08T23:11:19.641Z,94.60
2018-07-08T23:13:48.043Z,94.80
2018-07-08T23:16:15.361Z,94.90
2018-07-08T23:18:42.781Z,95.00
2018-07-08T23:21:10.166Z,95.10
2018-07-08T23:23:37.535Z,95.20
2018-07-08T23:26:05.248Z,94.90
2018-07-08T23:28:33.372Z,95.70
2018-07-08T23:31:00.726Z,94.90
2018-07-08T23:33:28.193Z,94.70
2018-07-08T23:35:55.480Z,95.40
2018-07-08T23:38:22.793Z,95.70
2018-07-08T23:40:50.194Z,95.80
2018-07-08T23:43:17.598Z,95.80
2018-07-08T23:45:44.926Z,96.30
2018-07-08T23:48:12.277Z,96.50
2018-07-08T23:50:39.581Z,96.90
2018-07-08T23:53:06.982Z,96.40
2018-07-08T23:58:01.701Z,97.10
